APK245 DNMM-HKJK
Flight info
| Callsign | APK245 |
|---|---|
| Flight time | N/A |
| Altitude | 33000 |
| Route | BOTBO1Q BOTBO UR984 NLY UL434 UGBEL/N0491F350 UL434 NN UL433 NAKAT NAKAT3C |
| Aircraft | B77W/H-SDE1E2E3FGHIJ2J3J4J5M1RWXY/LB1D1 |
Departure
| Time | 2026-05-09 08:49 |
|---|---|
| Airport | Murtala Muhammed International Airport (DNMM) |
Arrival
| Time | N/A |
|---|---|
| Airport | Jomo Kenyatta International Airport (HKJK) |
| Time | Latitude | Longitude | Altitude | Speed | Heading |
|---|---|---|---|---|---|
| 2026-05-09 08:39 | 6.58001 | 3.31907 | 99 ft | 0 kts | 66° |
| 2026-05-09 08:43 | 6.58000 | 3.31903 | 98 ft | 2 kts | 66° |
| 2026-05-09 08:43 | 6.57992 | 3.31885 | 98 ft | 3 kts | 66° |
| 2026-05-09 08:43 | 6.57985 | 3.31868 | 99 ft | 2 kts | 67° |
| 2026-05-09 08:43 | 6.57978 | 3.31854 | 96 ft | 3 kts | 55° |
| 2026-05-09 08:44 | 6.57971 | 3.31844 | 97 ft | 3 kts | 38° |
| 2026-05-09 08:44 | 6.57960 | 3.31837 | 99 ft | 3 kts | 7° |
| 2026-05-09 08:44 | 6.57945 | 3.31837 | 98 ft | 3 kts | 339° |
| 2026-05-09 08:44 | 6.57927 | 3.31845 | 98 ft | 3 kts | 333° |
| 2026-05-09 08:45 | 6.57913 | 3.31852 | 97 ft | 1 kts | 336° |
| 2026-05-09 08:45 | 6.57909 | 3.31854 | 96 ft | 3 kts | 336° |
| 2026-05-09 08:47 | 6.57915 | 3.31851 | 97 ft | 6 kts | 336° |
| 2026-05-09 08:47 | 6.57975 | 3.31825 | 99 ft | 10 kts | 336° |
| 2026-05-09 08:47 | 6.58041 | 3.31796 | 101 ft | 10 kts | 336° |
| 2026-05-09 08:47 | 6.58106 | 3.31766 | 99 ft | 10 kts | 327° |
| 2026-05-09 08:48 | 6.58110 | 3.31702 | 91 ft | 13 kts | 249° |
| 2026-05-09 08:48 | 6.58063 | 3.31591 | 64 ft | 19 kts | 245° |
| 2026-05-09 08:48 | 6.57960 | 3.31498 | 57 ft | 18 kts | 207° |
| 2026-05-09 08:48 | 6.57860 | 3.31443 | 51 ft | 16 kts | 210° |
| 2026-05-09 08:49 | 6.57745 | 3.31377 | 53 ft | 28 kts | 207° |
| 2026-05-09 08:49 | 6.57407 | 3.31332 | 62 ft | 86 kts | 180° |
| 2026-05-09 08:49 | 6.56467 | 3.31339 | 65 ft | 180 kts | 179° |
| 2026-05-09 08:49 | 6.55118 | 3.31376 | 1019 ft | 186 kts | 179° |
| 2026-05-09 08:50 | 6.53914 | 3.31442 | 2692 ft | 183 kts | 179° |
| 2026-05-09 08:50 | 6.52464 | 3.31511 | 3191 ft | 231 kts | 179° |
| 2026-05-09 08:50 | 6.50837 | 3.31600 | 4335 ft | 240 kts | 172° |
| 2026-05-09 08:50 | 6.49129 | 3.31954 | 5442 ft | 257 kts | 165° |
| 2026-05-09 08:51 | 6.47376 | 3.32412 | 6757 ft | 265 kts | 163° |
| 2026-05-09 08:51 | 6.45536 | 3.32890 | 7860 ft | 283 kts | 161° |
| 2026-05-09 08:51 | 6.43537 | 3.33402 | 8657 ft | 313 kts | 161° |
| 2026-05-09 08:51 | 6.41339 | 3.34003 | 9409 ft | 329 kts | 153° |
| 2026-05-09 08:52 | 6.39492 | 3.35180 | 10966 ft | 309 kts | 130° |
| 2026-05-09 08:52 | 6.38206 | 3.36926 | 11898 ft | 321 kts | 113° |
| 2026-05-09 08:52 | 6.37683 | 3.38379 | 12164 ft | 338 kts | 100° |
| 2026-05-09 08:52 | 6.37279 | 3.40777 | 12657 ft | 361 kts | 97° |
| 2026-05-09 08:53 | 6.36920 | 3.43321 | 13665 ft | 374 kts | 97° |
| 2026-05-09 08:53 | 6.36562 | 3.45935 | 14664 ft | 382 kts | 97° |
| 2026-05-09 08:53 | 6.36193 | 3.48608 | 15679 ft | 388 kts | 97° |
| 2026-05-09 08:53 | 6.35810 | 3.51320 | 16629 ft | 396 kts | 97° |
| 2026-05-09 08:54 | 6.35410 | 3.54095 | 17521 ft | 405 kts | 98° |
| 2026-05-09 08:54 | 6.34995 | 3.56924 | 18370 ft | 413 kts | 98° |
| 2026-05-09 08:54 | 6.34569 | 3.59801 | 19163 ft | 418 kts | 98° |
| 2026-05-09 08:54 | 6.34138 | 3.62696 | 20049 ft | 420 kts | 98° |
| 2026-05-09 08:55 | 6.33702 | 3.65611 | 20913 ft | 422 kts | 98° |
| 2026-05-09 08:55 | 6.33264 | 3.68539 | 21700 ft | 426 kts | 98° |
| 2026-05-09 08:55 | 6.32820 | 3.71502 | 22421 ft | 431 kts | 98° |
| 2026-05-09 08:55 | 6.32372 | 3.74494 | 23132 ft | 435 kts | 98° |
| 2026-05-09 08:56 | 6.31921 | 3.77510 | 23777 ft | 438 kts | 98° |
| 2026-05-09 08:56 | 6.31464 | 3.80558 | 24318 ft | 442 kts | 98° |
| 2026-05-09 08:56 | 6.31005 | 3.83628 | 24839 ft | 446 kts | 97° |
| 2026-05-09 08:56 | 6.30541 | 3.86721 | 25340 ft | 450 kts | 97° |
| 2026-05-09 08:57 | 6.30072 | 3.89852 | 25822 ft | 454 kts | 97° |
| 2026-05-09 08:57 | 6.29599 | 3.93006 | 26243 ft | 458 kts | 97° |
| 2026-05-09 08:57 | 6.29122 | 3.96186 | 26674 ft | 461 kts | 97° |
| 2026-05-09 08:57 | 6.28642 | 3.99382 | 27116 ft | 464 kts | 97° |
| 2026-05-09 08:58 | 6.28159 | 4.02597 | 27520 ft | 467 kts | 97° |
| 2026-05-09 08:58 | 6.27673 | 4.05835 | 27905 ft | 470 kts | 97° |
| 2026-05-09 08:58 | 6.27183 | 4.09098 | 28263 ft | 473 kts | 97° |
| 2026-05-09 08:58 | 6.26695 | 4.12343 | 28604 ft | 476 kts | 97° |
| 2026-05-09 08:59 | 6.26198 | 4.15643 | 28939 ft | 479 kts | 97° |
| 2026-05-09 08:59 | 6.25700 | 4.18956 | 29279 ft | 481 kts | 96° |
| 2026-05-09 08:59 | 6.25196 | 4.22298 | 29719 ft | 481 kts | 96° |
| 2026-05-09 08:59 | 6.24697 | 4.25610 | 30177 ft | 480 kts | 96° |
| 2026-05-09 09:00 | 6.24196 | 4.28928 | 30558 ft | 479 kts | 97° |
| 2026-05-09 09:00 | 6.23472 | 4.32204 | 30872 ft | 482 kts | 108° |
| 2026-05-09 09:00 | 6.22132 | 4.35300 | 31167 ft | 484 kts | 113° |
| 2026-05-09 09:00 | 6.20641 | 4.38298 | 31495 ft | 485 kts | 114° |
| 2026-05-09 09:01 | 6.19103 | 4.41314 | 31843 ft | 484 kts | 115° |
| 2026-05-09 09:01 | 6.17576 | 4.44335 | 32177 ft | 483 kts | 114° |
| 2026-05-09 09:01 | 6.16080 | 4.47360 | 32499 ft | 483 kts | 114° |
| 2026-05-09 09:01 | 6.14609 | 4.50392 | 32804 ft | 483 kts | 113° |
| 2026-05-09 09:02 | 6.13149 | 4.53441 | 32907 ft | 486 kts | 113° |
| 2026-05-09 09:02 | 6.10226 | 4.59593 | 32972 ft | 489 kts | 113° |
| 2026-05-09 09:03 | 6.07296 | 4.65755 | 32972 ft | 488 kts | 113° |
| 2026-05-09 09:03 | 6.04363 | 4.71912 | 32981 ft | 491 kts | 113° |
| 2026-05-09 09:04 | 6.01394 | 4.78137 | 32976 ft | 495 kts | 113° |
| 2026-05-09 09:04 | 5.98412 | 4.84385 | 32976 ft | 497 kts | 113° |
| 2026-05-09 09:05 | 5.95446 | 4.90599 | 32973 ft | 496 kts | 113° |
| 2026-05-09 09:05 | 5.92461 | 4.96852 | 32985 ft | 495 kts | 113° |
| 2026-05-09 09:06 | 5.89489 | 5.03075 | 32967 ft | 493 kts | 113° |
| 2026-05-09 09:06 | 5.86524 | 5.09266 | 32977 ft | 491 kts | 113° |
| 2026-05-09 09:07 | 5.83563 | 5.15443 | 32971 ft | 490 kts | 113° |
| 2026-05-09 09:07 | 5.80603 | 5.21618 | 32973 ft | 490 kts | 113° |
| 2026-05-09 09:08 | 5.77651 | 5.27778 | 32983 ft | 489 kts | 113° |
| 2026-05-09 09:08 | 5.74702 | 5.33929 | 32976 ft | 489 kts | 113° |
| 2026-05-09 09:09 | 5.71747 | 5.40090 | 32968 ft | 490 kts | 113° |
| 2026-05-09 09:09 | 5.68792 | 5.46250 | 32972 ft | 490 kts | 113° |
| 2026-05-09 09:10 | 5.65830 | 5.52423 | 32971 ft | 490 kts | 113° |
| 2026-05-09 09:10 | 5.62870 | 5.58588 | 32971 ft | 490 kts | 113° |
| 2026-05-09 09:11 | 5.59919 | 5.64732 | 32971 ft | 490 kts | 113° |
| 2026-05-09 09:11 | 5.56974 | 5.70863 | 32970 ft | 490 kts | 113° |
| 2026-05-09 09:12 | 5.54016 | 5.77019 | 32970 ft | 490 kts | 113° |
| 2026-05-09 09:12 | 5.51056 | 5.83178 | 32965 ft | 489 kts | 113° |
| 2026-05-09 09:13 | 5.48579 | 5.88329 | 32969 ft | 489 kts | 113° |
| 2026-05-09 09:13 | 5.45623 | 5.94476 | 32971 ft | 489 kts | 113° |
| 2026-05-09 09:14 | 5.42665 | 6.00624 | 32973 ft | 489 kts | 113° |
| 2026-05-09 09:14 | 5.39730 | 6.06724 | 32971 ft | 488 kts | 113° |
| 2026-05-09 09:15 | 5.36777 | 6.12861 | 32973 ft | 488 kts | 113° |
| 2026-05-09 09:15 | 5.33878 | 6.19021 | 32966 ft | 487 kts | 110° |
| 2026-05-09 09:16 | 5.31380 | 6.25335 | 32976 ft | 487 kts | 109° |
| 2026-05-09 09:16 | 5.27691 | 6.34821 | 32971 ft | 487 kts | 109° |
| 2026-05-09 09:17 | 5.25244 | 6.41037 | 32976 ft | 487 kts | 109° |
| 2026-05-09 09:17 | 5.22765 | 6.47318 | 32972 ft | 487 kts | 109° |
| 2026-05-09 09:18 | 5.20272 | 6.53638 | 32967 ft | 487 kts | 109° |
| 2026-05-09 09:18 | 5.17809 | 6.59883 | 32974 ft | 487 kts | 109° |
| 2026-05-09 09:19 | 5.15318 | 6.66225 | 32972 ft | 488 kts | 109° |
| 2026-05-09 09:19 | 5.12836 | 6.72559 | 32978 ft | 488 kts | 109° |
| 2026-05-09 09:20 | 5.10352 | 6.78895 | 32971 ft | 488 kts | 109° |
| 2026-05-09 09:20 | 5.07865 | 6.85231 | 32980 ft | 488 kts | 109° |
| 2026-05-09 09:21 | 5.05390 | 6.91539 | 32980 ft | 489 kts | 109° |
| 2026-05-09 09:21 | 5.02885 | 6.97870 | 32974 ft | 489 kts | 110° |
| 2026-05-09 09:22 | 5.00093 | 7.04097 | 32979 ft | 490 kts | 112° |
| 2026-05-09 09:22 | 4.99112 | 7.06196 | 32981 ft | 490 kts | 112° |